createdAt,value
2022-10-11T00:01:14.776Z,11.80
2022-10-11T00:03:40.803Z,9.18
2022-10-11T00:06:08.485Z,15.27
2022-10-11T00:08:35.083Z,14.20
2022-10-11T00:11:04.909Z,15.85
2022-10-11T00:13:31.003Z,15.85
2022-10-11T00:15:57.349Z,10.73
2022-10-11T00:18:24.014Z,14.27
2022-10-11T00:20:50.110Z,12.10
2022-10-11T00:23:16.470Z,18.13
2022-10-11T00:25:42.494Z,16.73
2022-10-11T00:28:08.625Z,28.35
2022-10-11T00:30:34.668Z,14.40
2022-10-11T00:33:00.754Z,15.18
2022-10-11T00:35:28.001Z,15.20
2022-10-11T00:37:55.829Z,17.45
2022-10-11T00:40:22.016Z,11.55
2022-10-11T00:42:48.077Z,12.95
2022-10-11T00:45:26.072Z,11.82
2022-10-11T00:48:16.781Z,12.48
2022-10-11T00:50:42.915Z,9.57
2022-10-11T00:53:11.197Z,9.35
2022-10-11T00:55:45.383Z,15.65
2022-10-11T00:58:13.171Z,15.93
2022-10-11T01:00:39.443Z,13.70
2022-10-11T01:03:05.634Z,12.38
2022-10-11T01:05:32.022Z,13.27
2022-10-11T01:08:02.595Z,10.73
2022-10-11T01:10:28.925Z,11.73
2022-10-11T01:13:26.683Z,10.98
2022-10-11T01:16:21.536Z,14.05
2022-10-11T01:19:12.202Z,26.65
2022-10-11T01:21:43.389Z,14.93
2022-10-11T01:24:30.936Z,17.58
2022-10-11T01:27:06.197Z,21.23
2022-10-11T01:29:37.677Z,16.58
2022-10-11T01:32:22.320Z,12.98
2022-10-11T01:35:08.580Z,15.38
2022-10-11T01:37:52.253Z,16.75
2022-10-11T01:40:32.881Z,13.55
2022-10-11T01:43:00.894Z,15.10
2022-10-11T01:45:27.279Z,10.80
2022-10-11T01:48:08.668Z,16.83
2022-10-11T01:50:39.474Z,12.27
2022-10-11T01:53:43.995Z,13.82
2022-10-11T01:56:38.714Z,15.43
2022-10-11T01:59:16.408Z,16.67
2022-10-11T02:02:18.507Z,25.88
2022-10-11T02:05:02.523Z,13.10
2022-10-11T02:07:41.414Z,12.57
2022-10-11T02:10:43.023Z,10.20
2022-10-11T02:13:23.220Z,23.88
2022-10-11T02:15:52.035Z,19.50
2022-10-11T02:18:22.801Z,15.10
2022-10-11T02:20:50.770Z,10.40
2022-10-11T02:23:22.616Z,14.38
2022-10-11T02:25:49.264Z,14.23
2022-10-11T02:28:22.915Z,22.95
2022-10-11T02:30:51.639Z,14.77
2022-10-11T02:33:23.450Z,12.43
2022-10-11T02:35:58.100Z,10.95
2022-10-11T02:38:26.975Z,17.85
2022-10-11T02:41:21.577Z,19.10
2022-10-11T02:43:58.830Z,9.43
2022-10-11T02:46:26.577Z,14.02
2022-10-11T02:48:53.292Z,10.85
2022-10-11T02:51:20.656Z,21.27
2022-10-11T02:53:47.894Z,9.20
2022-10-11T02:56:14.226Z,15.73
2022-10-11T02:58:40.359Z,13.95
2022-10-11T03:01:06.451Z,14.70
2022-10-11T03:03:32.460Z,13.32
2022-10-11T03:06:00.800Z,10.77
2022-10-11T03:08:27.218Z,9.48
2022-10-11T03:10:53.415Z,13.45
2022-10-11T03:13:19.515Z,14.68
2022-10-11T03:16:02.822Z,16.15
2022-10-11T03:18:30.059Z,13.25
2022-10-11T03:20:56.165Z,16.05
2022-10-11T03:23:22.232Z,14.57
2022-10-11T03:25:48.578Z,8.48
2022-10-11T03:28:14.614Z,12.38
2022-10-11T03:30:43.581Z,9.35
2022-10-11T03:33:09.617Z,10.68
2022-10-11T03:35:36.122Z,18.08
2022-10-11T03:38:02.370Z,16.15
2022-10-11T03:40:28.393Z,16.73
2022-10-11T03:42:55.745Z,12.85
2022-10-11T03:45:22.072Z,11.55
2022-10-11T03:47:48.105Z,16.38
2022-10-11T03:50:14.188Z,13.35
2022-10-11T03:52:40.304Z,11.38
2022-10-11T03:55:06.622Z,13.52
2022-10-11T03:57:32.945Z,15.18
2022-10-11T03:59:58.988Z,12.48
2022-10-11T04:02:25.533Z,10.88
2022-10-11T04:04:51.732Z,16.88
2022-10-11T04:07:17.944Z,14.43
2022-10-11T04:09:43.982Z,8.25
2022-10-11T04:12:10.083Z,9.55
2022-10-11T04:14:36.131Z,17.25
2022-10-11T04:17:02.156Z,19.30
2022-10-11T04:19:28.425Z,11.15
2022-10-11T04:21:54.455Z,13.32
2022-10-11T04:24:20.584Z,8.52
2022-10-11T04:26:46.580Z,15.68
2022-10-11T04:29:12.662Z,15.75
2022-10-11T04:31:38.816Z,11.32
2022-10-11T04:34:04.860Z,10.40
2022-10-11T04:36:33.198Z,15.52
2022-10-11T04:39:00.966Z,10.30
2022-10-11T04:41:28.664Z,13.25
2022-10-11T04:43:54.710Z,15.45
2022-10-11T04:46:20.908Z,12.25
2022-10-11T04:48:46.981Z,21.77
2022-10-11T04:51:13.378Z,14.88
2022-10-11T04:53:39.417Z,15.40
2022-10-11T04:56:10.380Z,14.93
2022-10-11T04:58:40.101Z,15.98
2022-10-11T05:01:07.625Z,20.75
2022-10-11T05:03:34.046Z,13.85
2022-10-11T05:06:05.259Z,10.88
2022-10-11T05:08:32.369Z,12.43
2022-10-11T05:10:59.874Z,16.48
2022-10-11T05:13:27.273Z,17.10
2022-10-11T05:15:53.607Z,12.27
2022-10-11T05:18:19.938Z,11.48
2022-10-11T05:20:46.513Z,19.63
2022-10-11T05:23:13.209Z,14.00
2022-10-11T05:25:39.464Z,15.65
2022-10-11T05:28:05.657Z,17.50
2022-10-11T05:30:31.841Z,15.07
2022-10-11T05:32:57.929Z,13.13
2022-10-11T05:35:24.001Z,15.02
2022-10-11T05:37:50.096Z,17.60
2022-10-11T05:40:16.200Z,12.63
2022-10-11T05:42:42.335Z,12.55
2022-10-11T05:45:09.068Z,16.75
2022-10-11T05:47:35.472Z,15.73
2022-10-11T05:50:01.568Z,13.65
2022-10-11T05:52:27.701Z,12.20
2022-10-11T05:54:53.781Z,15.75
2022-10-11T05:57:20.244Z,9.32
2022-10-11T05:59:46.306Z,16.70
2022-10-11T06:02:12.821Z,16.23
2022-10-11T06:04:39.380Z,62.38
2022-10-11T06:07:06.305Z,32.35
2022-10-11T06:09:35.176Z,19.48
2022-10-11T06:12:01.431Z,16.58
2022-10-11T06:14:27.568Z,18.70
2022-10-11T06:16:53.564Z,14.73
2022-10-11T06:19:19.604Z,10.52
2022-10-11T06:21:47.110Z,9.52
2022-10-11T06:24:13.287Z,14.10
2022-10-11T06:26:39.585Z,12.70
2022-10-11T06:29:06.257Z,18.30
2022-10-11T06:31:32.418Z,15.20
2022-10-11T06:33:59.164Z,26.70
2022-10-11T06:36:26.080Z,16.58
2022-10-11T06:38:52.920Z,12.93
2022-10-11T06:41:27.921Z,26.08
2022-10-11T06:43:54.177Z,15.57
2022-10-11T06:46:22.216Z,15.48
2022-10-11T06:48:48.773Z,17.95
2022-10-11T06:51:16.906Z,15.30
2022-10-11T06:53:43.318Z,15.48
2022-10-11T06:56:12.393Z,20.27
2022-10-11T06:58:39.423Z,10.55
2022-10-11T07:01:08.874Z,10.98
2022-10-11T07:03:35.289Z,11.88
2022-10-11T07:06:07.498Z,18.10
2022-10-11T07:08:34.280Z,42.08
2022-10-11T07:11:05.678Z,16.77
2022-10-11T07:13:31.764Z,14.48
2022-10-11T07:16:01.487Z,11.80
2022-10-11T07:18:27.935Z,19.88
2022-10-11T07:20:54.340Z,15.55
2022-10-11T07:23:20.378Z,21.17
2022-10-11T07:25:46.598Z,19.73
2022-10-11T07:28:13.463Z,19.08
2022-10-11T07:30:43.366Z,24.63
2022-10-11T07:33:09.728Z,24.08
2022-10-11T07:35:36.819Z,31.27
2022-10-11T07:38:04.216Z,23.80
2022-10-11T07:40:30.874Z,24.35
2022-10-11T07:42:57.483Z,49.72
2022-10-11T07:45:28.285Z,49.38
2022-10-11T07:47:57.794Z,39.78
2022-10-11T07:50:24.781Z,32.25
2022-10-11T07:52:50.823Z,23.08
2022-10-11T07:55:16.972Z,19.80
2022-10-11T07:57:43.005Z,28.70
2022-10-11T08:00:09.629Z,16.70
2022-10-11T08:02:35.800Z,18.63
2022-10-11T08:05:01.977Z,15.02
2022-10-11T08:07:29.216Z,12.15
2022-10-11T08:09:55.873Z,21.60
2022-10-11T08:12:21.888Z,11.65
2022-10-11T08:14:48.116Z,14.70
2022-10-11T08:17:14.377Z,17.00
2022-10-11T08:19:40.562Z,15.82
2022-10-11T08:22:06.957Z,10.82
2022-10-11T08:24:38.028Z,10.27
2022-10-11T08:29:30.457Z,20.25
2022-10-11T08:31:56.585Z,64.45
2022-10-11T08:34:22.653Z,19.52
2022-10-11T08:36:48.715Z,16.65
2022-10-11T08:39:15.264Z,13.07
2022-10-11T08:42:02.175Z,13.43
2022-10-11T08:44:58.240Z,13.07
2022-10-11T08:47:27.136Z,8.50
2022-10-11T08:49:54.302Z,11.68
2022-10-11T08:52:41.960Z,8.23
2022-10-11T08:55:18.677Z,15.32
2022-10-11T08:57:51.631Z,26.25
2022-10-11T09:00:19.228Z,15.02
2022-10-11T09:03:32.625Z,12.60
2022-10-11T09:06:25.373Z,14.27
2022-10-11T09:08:54.187Z,16.02
2022-10-11T09:11:46.022Z,12.15
2022-10-11T09:14:35.001Z,12.93
2022-10-11T09:17:13.979Z,10.63
2022-10-11T09:20:10.784Z,10.38
2022-10-11T09:23:07.547Z,11.93
2022-10-11T09:25:43.853Z,11.55
2022-10-11T09:28:20.365Z,16.90
2022-10-11T09:30:49.836Z,10.50
2022-10-11T09:33:40.278Z,15.45
2022-10-11T09:36:28.668Z,10.10
2022-10-11T09:39:06.646Z,13.95
2022-10-11T09:41:56.618Z,13.48
2022-10-11T09:44:25.588Z,16.48
2022-10-11T09:46:54.388Z,12.38
2022-10-11T09:49:24.572Z,9.40
2022-10-11T09:51:55.056Z,10.97
2022-10-11T09:54:39.969Z,10.38
2022-10-11T09:57:15.328Z,14.27
2022-10-11T09:59:42.775Z,10.27
2022-10-11T10:02:22.905Z,9.45
2022-10-11T10:05:01.311Z,10.23
2022-10-11T10:07:29.832Z,10.10
2022-10-11T10:09:56.532Z,10.73
2022-10-11T10:12:36.683Z,10.13
2022-10-11T10:15:19.250Z,9.73
2022-10-11T10:17:51.407Z,8.80
2022-10-11T10:20:22.471Z,10.20
2022-10-11T10:22:49.183Z,8.32
2022-10-11T10:25:32.140Z,9.98
2022-10-11T10:28:01.236Z,9.02
2022-10-11T10:30:31.839Z,13.52
2022-10-11T10:33:05.078Z,13.25
2022-10-11T10:35:44.856Z,12.25
2022-10-11T10:38:48.603Z,7.88
2022-10-11T10:41:19.026Z,9.27
2022-10-11T10:43:55.423Z,7.55
2022-10-11T10:46:26.693Z,8.95
2022-10-11T10:52:21.697Z,8.18
2022-10-11T10:55:15.172Z,7.57
2022-10-11T10:57:58.195Z,8.32
2022-10-11T11:00:37.622Z,6.78
2022-10-11T11:03:11.610Z,8.25
2022-10-11T11:05:44.842Z,5.43
2022-10-11T11:08:42.054Z,8.63
2022-10-11T11:11:29.411Z,5.18
2022-10-11T11:14:03.443Z,10.70
2022-10-11T11:16:57.097Z,9.18
2022-10-11T11:19:52.734Z,10.55
2022-10-11T11:22:43.784Z,7.70
2022-10-11T11:25:34.791Z,12.20
2022-10-11T11:28:00.899Z,9.02
2022-10-11T11:30:45.227Z,7.35
2022-10-11T11:33:46.371Z,8.25
2022-10-11T11:36:23.700Z,8.13
2022-10-11T11:39:02.688Z,7.55
2022-10-11T11:41:33.116Z,9.77
2022-10-11T11:44:27.504Z,8.18
2022-10-11T11:47:22.526Z,14.20
2022-10-11T11:50:14.367Z,10.63
2022-10-11T11:52:47.229Z,8.27
2022-10-11T11:55:38.502Z,7.65
2022-10-11T11:58:25.694Z,10.40
2022-10-11T12:01:02.455Z,8.63
2022-10-11T12:03:41.645Z,7.55
2022-10-11T12:06:14.077Z,9.77
2022-10-11T12:08:47.832Z,10.13
2022-10-11T12:11:24.585Z,11.30
2022-10-11T12:13:52.475Z,10.10
2022-10-11T12:16:19.426Z,13.25
2022-10-11T12:18:48.238Z,8.02
2022-10-11T12:21:36.222Z,13.63
2022-10-11T12:24:12.831Z,9.63
2022-10-11T12:26:38.843Z,9.15
2022-10-11T12:29:28.453Z,14.93
2022-10-11T12:32:00.934Z,10.63
2022-10-11T12:34:43.447Z,10.52
2022-10-11T12:37:18.855Z,10.45
2022-10-11T12:39:55.395Z,12.95
2022-10-11T12:42:34.672Z,10.48
2022-10-11T12:45:12.945Z,17.13
2022-10-11T12:48:14.406Z,10.45
2022-10-11T12:51:02.940Z,7.63
2022-10-11T12:53:44.337Z,19.40
2022-10-11T12:56:38.143Z,11.95
2022-10-11T12:59:05.763Z,34.33
2022-10-11T13:01:46.841Z,12.00
2022-10-11T13:04:18.929Z,13.50
2022-10-11T13:06:50.093Z,11.13
2022-10-11T13:12:06.064Z,12.93
2022-10-11T13:14:52.025Z,10.23
2022-10-11T13:17:34.496Z,11.80
2022-10-11T13:20:15.532Z,10.80
2022-10-11T13:22:41.636Z,12.50
2022-10-11T13:25:08.575Z,12.25
2022-10-11T13:27:37.070Z,14.65
2022-10-11T13:30:07.853Z,9.57
2022-10-11T13:32:36.234Z,10.52
2022-10-11T13:35:24.756Z,8.65
2022-10-11T13:37:51.552Z,16.25
2022-10-11T13:40:20.240Z,13.82
2022-10-11T13:42:48.821Z,5.72
2022-10-11T13:45:18.667Z,11.98
2022-10-11T13:47:46.455Z,17.38
2022-10-11T13:50:29.850Z,11.05
2022-10-11T13:53:02.008Z,11.07
2022-10-11T13:56:06.317Z,13.32
2022-10-11T13:58:45.485Z,14.18
2022-10-11T14:01:25.861Z,11.90
2022-10-11T14:04:01.954Z,16.60
2022-10-11T14:06:43.506Z,15.15
2022-10-11T14:09:20.535Z,11.48
2022-10-11T14:11:46.828Z,8.68
2022-10-11T14:14:32.046Z,7.97
2022-10-11T14:17:11.838Z,12.85
2022-10-11T14:19:38.721Z,7.40
2022-10-11T14:22:06.626Z,11.93
2022-10-11T14:24:32.700Z,13.85
2022-10-11T14:26:58.810Z,9.63
2022-10-11T14:29:31.745Z,13.40
2022-10-11T14:32:07.522Z,10.07
2022-10-11T14:34:34.461Z,8.30
2022-10-11T14:37:00.566Z,14.07
2022-10-11T14:39:29.926Z,15.77
2022-10-11T14:41:56.554Z,10.18
2022-10-11T14:44:25.796Z,11.27
2022-10-11T14:46:54.559Z,18.70
2022-10-11T14:49:25.164Z,10.82
2022-10-11T14:51:52.553Z,12.48
2022-10-11T14:54:24.481Z,12.32
2022-10-11T14:56:52.799Z,15.98
2022-10-11T14:59:22.232Z,14.50
2022-10-11T15:01:53.129Z,14.93
2022-10-11T15:04:20.584Z,16.58
2022-10-11T15:06:47.893Z,13.57
2022-10-11T15:09:16.304Z,12.57
2022-10-11T15:11:43.031Z,13.70
2022-10-11T15:14:09.123Z,16.67
2022-10-11T15:16:35.919Z,13.15
2022-10-11T15:19:02.025Z,12.85
2022-10-11T15:21:29.184Z,15.13
2022-10-11T15:23:55.629Z,15.80
2022-10-11T15:26:25.028Z,12.70
2022-10-11T15:28:52.690Z,12.55
2022-10-11T15:31:19.258Z,13.18
2022-10-11T15:33:45.851Z,18.27
2022-10-11T15:36:17.948Z,12.95
2022-10-11T15:38:44.989Z,13.13
2022-10-11T15:41:15.029Z,10.32
2022-10-11T15:43:45.365Z,14.85
2022-10-11T15:46:18.867Z,13.93
2022-10-11T15:48:45.844Z,11.93
2022-10-11T15:51:12.472Z,13.80
2022-10-11T15:53:38.941Z,15.32
2022-10-11T15:56:08.587Z,14.20
2022-10-11T15:58:38.066Z,18.23
2022-10-11T16:01:13.387Z,13.25
2022-10-11T16:03:40.573Z,17.73
2022-10-11T16:06:07.665Z,13.43
2022-10-11T16:08:34.683Z,13.00
2022-10-11T16:11:01.572Z,14.65
2022-10-11T16:13:27.671Z,14.82
2022-10-11T16:15:53.906Z,11.18
2022-10-11T16:18:21.493Z,16.30
2022-10-11T16:20:51.074Z,13.88
2022-10-11T16:23:18.205Z,24.83
2022-10-11T16:25:44.378Z,17.02
2022-10-11T16:28:11.017Z,20.80
2022-10-11T16:30:44.417Z,12.45
2022-10-11T16:33:10.666Z,12.60
2022-10-11T16:35:41.213Z,18.17
2022-10-11T16:38:07.395Z,12.33
2022-10-11T16:40:35.765Z,17.63
2022-10-11T16:43:07.277Z,17.20
2022-10-11T16:45:34.861Z,14.85
2022-10-11T16:48:01.740Z,14.13
2022-10-11T16:50:28.412Z,19.60
2022-10-11T16:52:54.838Z,20.88
2022-10-11T16:55:21.927Z,21.90
2022-10-11T16:57:48.249Z,24.00
2022-10-11T17:00:15.156Z,24.92
2022-10-11T17:02:42.778Z,23.98
2022-10-11T17:05:09.719Z,20.65
2022-10-11T17:07:37.501Z,20.15
2022-10-11T17:10:06.804Z,23.23
2022-10-11T17:12:34.793Z,14.80
2022-10-11T17:15:01.895Z,19.65
2022-10-11T17:17:28.920Z,29.48
2022-10-11T17:19:55.762Z,33.95
2022-10-11T17:22:23.916Z,42.35
2022-10-11T17:24:50.319Z,48.65
2022-10-11T17:27:16.855Z,44.88
2022-10-11T17:29:45.180Z,44.35
2022-10-11T17:32:12.661Z,52.40
2022-10-11T17:34:39.060Z,49.67
2022-10-11T17:37:09.286Z,43.67
2022-10-11T17:39:35.591Z,31.48
2022-10-11T17:42:06.493Z,27.52
2022-10-11T17:44:33.044Z,20.48
2022-10-11T17:46:59.688Z,20.20
2022-10-11T17:49:25.908Z,14.38
2022-10-11T17:51:54.298Z,17.02
2022-10-11T17:54:20.342Z,14.77
2022-10-11T17:56:46.459Z,17.52
2022-10-11T17:59:17.736Z,19.08
2022-10-11T18:01:43.769Z,16.98
2022-10-11T18:04:15.741Z,15.05
2022-10-11T18:06:44.380Z,14.63
2022-10-11T18:09:11.782Z,14.05
2022-10-11T18:11:38.186Z,19.35
2022-10-11T18:14:04.589Z,15.02
2022-10-11T18:16:31.927Z,16.33
2022-10-11T18:19:01.232Z,12.00
2022-10-11T18:21:33.411Z,13.23
2022-10-11T18:24:02.562Z,14.98
2022-10-11T18:26:30.784Z,14.88
2022-10-11T18:28:57.777Z,21.15
2022-10-11T18:31:29.425Z,21.98
2022-10-11T18:33:55.940Z,16.55
2022-10-11T18:36:25.028Z,14.70
2022-10-11T18:38:57.155Z,14.73
2022-10-11T18:41:30.304Z,12.25
2022-10-11T18:44:03.561Z,16.98
2022-10-11T18:46:30.697Z,40.83
2022-10-11T18:48:59.354Z,36.20
2022-10-11T18:51:31.989Z,27.83
2022-10-11T18:53:59.374Z,18.85
2022-10-11T18:56:27.664Z,19.17
2022-10-11T18:58:55.256Z,15.48
2022-10-11T19:01:27.508Z,25.00
2022-10-11T19:03:55.992Z,24.83
2022-10-11T19:06:25.337Z,21.23
2022-10-11T19:09:06.326Z,19.23
2022-10-11T19:11:32.865Z,18.95
2022-10-11T19:14:08.624Z,17.92
2022-10-11T19:16:39.557Z,15.77
2022-10-11T19:19:13.876Z,18.63
2022-10-11T19:21:40.493Z,17.50
2022-10-11T19:24:08.828Z,21.73
2022-10-11T19:26:38.991Z,19.95
2022-10-11T19:29:30.716Z,16.17
2022-10-11T19:32:01.965Z,54.33
2022-10-11T19:34:30.337Z,62.60
2022-10-11T19:36:59.906Z,37.28
2022-10-11T19:39:27.297Z,26.60
2022-10-11T19:41:53.508Z,30.20
2022-10-11T19:44:19.659Z,22.60
2022-10-11T19:46:53.392Z,17.67
2022-10-11T19:49:23.917Z,19.42
2022-10-11T19:51:50.972Z,19.83
2022-10-11T19:54:17.649Z,18.20
2022-10-11T19:56:44.521Z,20.75
2022-10-11T19:59:11.667Z,25.08
2022-10-11T20:01:40.408Z,20.90
2022-10-11T20:04:15.360Z,17.23
2022-10-11T20:06:48.877Z,22.48
2022-10-11T20:09:28.914Z,27.10
2022-10-11T20:11:56.338Z,19.15
2022-10-11T20:14:22.543Z,20.23
2022-10-11T20:16:49.758Z,20.42
2022-10-11T20:19:16.530Z,18.75
2022-10-11T20:21:43.248Z,22.48
2022-10-11T20:24:09.276Z,17.35
2022-10-11T20:26:35.297Z,16.90
2022-10-11T20:29:01.418Z,12.88
2022-10-11T20:31:30.825Z,15.77
2022-10-11T20:34:00.591Z,14.68
2022-10-11T20:36:28.893Z,14.10
2022-10-11T20:38:56.072Z,15.30
2022-10-11T20:41:25.397Z,14.63
2022-10-11T20:43:54.114Z,15.05
2022-10-11T20:46:25.587Z,13.45
2022-10-11T20:48:58.871Z,15.23
2022-10-11T20:51:28.190Z,14.15
2022-10-11T20:53:54.753Z,17.08
2022-10-11T20:56:21.771Z,16.90
2022-10-11T20:58:54.493Z,17.70
2022-10-11T21:01:26.850Z,15.45
2022-10-11T21:03:53.417Z,19.20
2022-10-11T21:06:19.828Z,16.20
2022-10-11T21:08:46.372Z,12.40
2022-10-11T21:11:12.862Z,18.52
2022-10-11T21:13:39.408Z,14.35
2022-10-11T21:16:10.063Z,14.07
2022-10-11T21:18:36.975Z,11.97
2022-10-11T21:21:08.465Z,11.82
2022-10-11T21:23:34.869Z,17.00
2022-10-11T21:26:02.516Z,16.35
2022-10-11T21:28:29.018Z,14.57
2022-10-11T21:30:55.084Z,21.30
2022-10-11T21:33:21.544Z,13.80
2022-10-11T21:35:47.713Z,11.90
2022-10-11T21:38:13.744Z,14.25
2022-10-11T21:40:39.801Z,10.90
2022-10-11T21:43:06.631Z,12.00
2022-10-11T21:45:36.689Z,14.85
2022-10-11T21:48:02.807Z,13.88
2022-10-11T21:50:30.787Z,14.15
2022-10-11T21:52:56.999Z,23.40
2022-10-11T21:55:23.046Z,14.07
2022-10-11T21:57:49.092Z,14.43
2022-10-11T22:00:15.123Z,10.02
2022-10-11T22:02:41.212Z,8.88
2022-10-11T22:05:07.361Z,9.80
2022-10-11T22:07:33.384Z,12.82
2022-10-11T22:09:59.455Z,13.70
2022-10-11T22:12:25.475Z,11.07
2022-10-11T22:14:51.553Z,12.93
2022-10-11T22:17:17.689Z,9.73
2022-10-11T22:19:43.711Z,9.05
2022-10-11T22:22:10.165Z,15.90
2022-10-11T22:24:36.223Z,13.35
2022-10-11T22:27:02.312Z,12.60
2022-10-11T22:29:33.182Z,21.27
2022-10-11T22:32:00.156Z,8.32
2022-10-11T22:34:30.378Z,17.38
2022-10-11T22:36:56.365Z,12.35
2022-10-11T22:39:22.377Z,12.40
2022-10-11T22:41:48.685Z,16.17
2022-10-11T22:44:14.841Z,12.57
2022-10-11T22:46:40.930Z,13.57
2022-10-11T22:49:07.032Z,15.13
2022-10-11T22:51:33.046Z,13.73
2022-10-11T22:53:59.164Z,10.50
2022-10-11T22:56:25.208Z,12.27
2022-10-11T22:58:51.224Z,14.27
2022-10-11T23:01:17.236Z,19.42
2022-10-11T23:03:47.797Z,15.80
2022-10-11T23:06:13.818Z,7.63
2022-10-11T23:08:40.030Z,13.48
2022-10-11T23:11:07.376Z,13.43
2022-10-11T23:13:34.558Z,11.10
2022-10-11T23:16:08.604Z,19.17
2022-10-11T23:18:35.145Z,9.27
2022-10-11T23:21:01.972Z,7.93
2022-10-11T23:23:28.179Z,9.18
2022-10-11T23:26:06.469Z,17.15
2022-10-11T23:28:32.599Z,15.05
2022-10-11T23:30:59.889Z,10.32
2022-10-11T23:33:27.852Z,12.80
2022-10-11T23:35:53.903Z,11.02
2022-10-11T23:38:19.958Z,18.98
2022-10-11T23:40:46.073Z,10.25
2022-10-11T23:43:12.111Z,7.55
2022-10-11T23:45:38.564Z,11.20
2022-10-11T23:48:04.948Z,9.93
2022-10-11T23:50:31.094Z,13.98
2022-10-11T23:52:57.158Z,12.15
2022-10-11T23:55:23.203Z,13.00
2022-10-11T23:57:50.640Z,19.05
